sensor_id;sensor_type;location;lat;lon;timestamp;P1;durP1;ratioP1;P2;durP2;ratioP2
44854;SDS011;30591;48.228;16.398;2022-12-07T00:00:06;20.20;;;13.13;;
44854;SDS011;30591;48.228;16.398;2022-12-07T00:02:35;20.20;;;12.90;;
44854;SDS011;30591;48.228;16.398;2022-12-07T00:05:03;21.07;;;14.23;;
44854;SDS011;30591;48.228;16.398;2022-12-07T00:07:33;20.40;;;13.40;;
44854;SDS011;30591;48.228;16.398;2022-12-07T00:10:02;20.13;;;13.30;;
44854;SDS011;30591;48.228;16.398;2022-12-07T00:12:32;20.50;;;14.80;;
44854;SDS011;30591;48.228;16.398;2022-12-07T00:14:59;21.90;;;14.03;;
44854;SDS011;30591;48.228;16.398;2022-12-07T00:17:33;21.60;;;14.00;;
44854;SDS011;30591;48.228;16.398;2022-12-07T00:20:03;23.37;;;14.33;;
44854;SDS011;30591;48.228;16.398;2022-12-07T00:22:31;22.00;;;14.80;;
44854;SDS011;30591;48.228;16.398;2022-12-07T00:25:01;23.50;;;15.43;;
44854;SDS011;30591;48.228;16.398;2022-12-07T00:27:28;23.63;;;15.10;;
44854;SDS011;30591;48.228;16.398;2022-12-07T00:29:55;22.17;;;14.33;;
44854;SDS011;30591;48.228;16.398;2022-12-07T00:32:23;23.03;;;15.30;;
44854;SDS011;30591;48.228;16.398;2022-12-07T00:34:50;23.37;;;15.47;;
44854;SDS011;30591;48.228;16.398;2022-12-07T00:37:23;20.83;;;14.27;;
44854;SDS011;30591;48.228;16.398;2022-12-07T00:39:56;23.40;;;15.90;;
44854;SDS011;30591;48.228;16.398;2022-12-07T00:42:33;25.37;;;15.27;;
44854;SDS011;30591;48.228;16.398;2022-12-07T00:45:01;25.10;;;15.90;;
44854;SDS011;30591;48.228;16.398;2022-12-07T00:47:28;22.77;;;15.53;;
44854;SDS011;30591;48.228;16.398;2022-12-07T00:50:02;24.03;;;15.03;;
44854;SDS011;30591;48.228;16.398;2022-12-07T00:52:32;21.67;;;14.87;;
44854;SDS011;30591;48.228;16.398;2022-12-07T00:54:59;25.67;;;15.77;;
44854;SDS011;30591;48.228;16.398;2022-12-07T00:57:33;22.97;;;15.07;;
44854;SDS011;30591;48.228;16.398;2022-12-07T01:00:02;23.00;;;15.77;;
44854;SDS011;30591;48.228;16.398;2022-12-07T01:02:29;22.93;;;14.83;;
44854;SDS011;30591;48.228;16.398;2022-12-07T01:04:58;23.80;;;15.77;;
44854;SDS011;30591;48.228;16.398;2022-12-07T01:07:42;23.70;;;15.93;;
44854;SDS011;30591;48.228;16.398;2022-12-07T01:10:13;24.33;;;16.07;;
44854;SDS011;30591;48.228;16.398;2022-12-07T01:12:41;23.83;;;16.07;;
44854;SDS011;30591;48.228;16.398;2022-12-07T01:15:12;23.83;;;16.03;;
44854;SDS011;30591;48.228;16.398;2022-12-07T01:17:43;23.83;;;16.03;;
44854;SDS011;30591;48.228;16.398;2022-12-07T01:20:10;25.70;;;16.53;;
44854;SDS011;30591;48.228;16.398;2022-12-07T01:22:40;21.37;;;15.07;;
44854;SDS011;30591;48.228;16.398;2022-12-07T01:25:20;28.80;;;16.37;;
44854;SDS011;30591;48.228;16.398;2022-12-07T01:27:52;23.50;;;15.90;;
44854;SDS011;30591;48.228;16.398;2022-12-07T01:30:20;24.73;;;16.00;;
44854;SDS011;30591;48.228;16.398;2022-12-07T01:32:47;26.07;;;15.53;;
44854;SDS011;30591;48.228;16.398;2022-12-07T01:35:14;26.60;;;16.40;;
44854;SDS011;30591;48.228;16.398;2022-12-07T01:37:42;24.27;;;16.03;;
44854;SDS011;30591;48.228;16.398;2022-12-07T01:40:11;24.03;;;15.70;;
44854;SDS011;30591;48.228;16.398;2022-12-07T01:42:40;24.17;;;16.73;;
44854;SDS011;30591;48.228;16.398;2022-12-07T01:48:14;23.87;;;15.53;;
44854;SDS011;30591;48.228;16.398;2022-12-07T01:50:47;23.23;;;15.77;;
44854;SDS011;30591;48.228;16.398;2022-12-07T01:53:17;27.27;;;16.33;;
44854;SDS011;30591;48.228;16.398;2022-12-07T01:55:46;25.53;;;16.47;;
44854;SDS011;30591;48.228;16.398;2022-12-07T01:58:16;23.60;;;16.07;;
44854;SDS011;30591;48.228;16.398;2022-12-07T02:00:45;23.63;;;15.40;;
44854;SDS011;30591;48.228;16.398;2022-12-07T02:05:51;25.67;;;16.87;;
44854;SDS011;30591;48.228;16.398;2022-12-07T02:08:20;24.00;;;16.40;;
44854;SDS011;30591;48.228;16.398;2022-12-07T02:10:55;24.70;;;16.97;;
44854;SDS011;30591;48.228;16.398;2022-12-07T02:13:25;24.37;;;16.33;;
44854;SDS011;30591;48.228;16.398;2022-12-07T02:27:45;24.60;;;16.23;;
44854;SDS011;30591;48.228;16.398;2022-12-07T02:30:15;27.23;;;16.60;;
44854;SDS011;30591;48.228;16.398;2022-12-07T02:38:26;26.17;;;16.43;;
44854;SDS011;30591;48.228;16.398;2022-12-07T02:41:16;26.80;;;17.00;;
44854;SDS011;30591;48.228;16.398;2022-12-07T02:44:03;23.83;;;16.03;;
44854;SDS011;30591;48.228;16.398;2022-12-07T02:46:37;23.57;;;16.13;;
44854;SDS011;30591;48.228;16.398;2022-12-07T02:49:26;26.20;;;17.10;;
44854;SDS011;30591;48.228;16.398;2022-12-07T02:51:55;24.27;;;15.83;;
44854;SDS011;30591;48.228;16.398;2022-12-07T02:54:23;25.00;;;16.83;;
44854;SDS011;30591;48.228;16.398;2022-12-07T03:16:52;26.83;;;16.70;;
44854;SDS011;30591;48.228;16.398;2022-12-07T03:19:31;26.40;;;16.87;;
44854;SDS011;30591;48.228;16.398;2022-12-07T03:22:02;26.17;;;16.43;;
44854;SDS011;30591;48.228;16.398;2022-12-07T03:24:57;25.73;;;16.70;;
44854;SDS011;30591;48.228;16.398;2022-12-07T03:27:34;29.37;;;16.53;;
44854;SDS011;30591;48.228;16.398;2022-12-07T03:30:07;27.87;;;17.17;;
44854;SDS011;30591;48.228;16.398;2022-12-07T03:33:01;29.07;;;17.97;;
44854;SDS011;30591;48.228;16.398;2022-12-07T03:35:40;25.30;;;16.43;;
44854;SDS011;30591;48.228;16.398;2022-12-07T03:38:27;27.73;;;16.67;;
44854;SDS011;30591;48.228;16.398;2022-12-07T03:41:12;25.77;;;16.67;;
44854;SDS011;30591;48.228;16.398;2022-12-07T03:43:49;27.67;;;17.63;;
44854;SDS011;30591;48.228;16.398;2022-12-07T03:49:00;27.50;;;16.67;;
44854;SDS011;30591;48.228;16.398;2022-12-07T03:54:43;26.23;;;17.13;;
44854;SDS011;30591;48.228;16.398;2022-12-07T03:57:23;22.73;;;15.60;;
44854;SDS011;30591;48.228;16.398;2022-12-07T03:59:59;27.70;;;16.50;;
44854;SDS011;30591;48.228;16.398;2022-12-07T04:02:38;25.83;;;15.70;;
44854;SDS011;30591;48.228;16.398;2022-12-07T04:05:12;25.30;;;16.10;;
44854;SDS011;30591;48.228;16.398;2022-12-07T04:07:41;25.23;;;16.57;;
44854;SDS011;30591;48.228;16.398;2022-12-07T04:10:09;24.53;;;16.60;;
44854;SDS011;30591;48.228;16.398;2022-12-07T04:12:38;24.63;;;15.83;;
44854;SDS011;30591;48.228;16.398;2022-12-07T04:15:07;23.63;;;15.80;;
44854;SDS011;30591;48.228;16.398;2022-12-07T04:17:35;27.20;;;17.57;;
44854;SDS011;30591;48.228;16.398;2022-12-07T04:20:03;25.90;;;16.50;;
44854;SDS011;30591;48.228;16.398;2022-12-07T04:22:31;25.77;;;16.67;;
44854;SDS011;30591;48.228;16.398;2022-12-07T04:25:00;24.93;;;15.33;;
44854;SDS011;30591;48.228;16.398;2022-12-07T04:27:29;27.30;;;16.77;;
44854;SDS011;30591;48.228;16.398;2022-12-07T04:29:57;26.77;;;16.30;;
44854;SDS011;30591;48.228;16.398;2022-12-07T04:32:25;26.17;;;15.67;;
44854;SDS011;30591;48.228;16.398;2022-12-07T04:34:53;27.30;;;17.30;;
44854;SDS011;30591;48.228;16.398;2022-12-07T04:37:23;26.10;;;16.27;;
44854;SDS011;30591;48.228;16.398;2022-12-07T04:39:57;24.13;;;15.87;;
44854;SDS011;30591;48.228;16.398;2022-12-07T04:42:25;24.83;;;16.07;;
44854;SDS011;30591;48.228;16.398;2022-12-07T04:44:53;25.03;;;16.97;;
44854;SDS011;30591;48.228;16.398;2022-12-07T04:47:20;27.73;;;17.47;;
44854;SDS011;30591;48.228;16.398;2022-12-07T04:49:49;27.67;;;16.67;;
44854;SDS011;30591;48.228;16.398;2022-12-07T04:52:17;24.20;;;16.77;;
44854;SDS011;30591;48.228;16.398;2022-12-07T04:54:46;26.53;;;18.23;;
44854;SDS011;30591;48.228;16.398;2022-12-07T04:57:13;28.53;;;17.17;;
44854;SDS011;30591;48.228;16.398;2022-12-07T04:59:41;27.03;;;17.10;;
44854;SDS011;30591;48.228;16.398;2022-12-07T05:02:14;23.30;;;15.27;;
44854;SDS011;30591;48.228;16.398;2022-12-07T05:04:43;24.10;;;14.93;;
44854;SDS011;30591;48.228;16.398;2022-12-07T05:07:10;26.23;;;16.03;;
44854;SDS011;30591;48.228;16.398;2022-12-07T05:09:37;22.60;;;15.40;;
44854;SDS011;30591;48.228;16.398;2022-12-07T05:12:05;26.00;;;16.10;;
44854;SDS011;30591;48.228;16.398;2022-12-07T05:14:34;23.77;;;15.27;;
44854;SDS011;30591;48.228;16.398;2022-12-07T05:17:01;26.27;;;16.47;;
44854;SDS011;30591;48.228;16.398;2022-12-07T05:19:28;25.63;;;15.53;;
44854;SDS011;30591;48.228;16.398;2022-12-07T05:21:57;25.27;;;15.87;;
44854;SDS011;30591;48.228;16.398;2022-12-07T05:24:26;22.37;;;14.67;;
44854;SDS011;30591;48.228;16.398;2022-12-07T05:26:53;24.13;;;15.47;;
44854;SDS011;30591;48.228;16.398;2022-12-07T05:29:21;23.70;;;15.37;;
44854;SDS011;30591;48.228;16.398;2022-12-07T05:31:50;25.30;;;15.03;;
44854;SDS011;30591;48.228;16.398;2022-12-07T05:34:19;25.30;;;15.70;;
44854;SDS011;30591;48.228;16.398;2022-12-07T05:36:47;23.00;;;15.20;;
44854;SDS011;30591;48.228;16.398;2022-12-07T05:39:15;23.43;;;14.73;;
44854;SDS011;30591;48.228;16.398;2022-12-07T05:41:43;21.53;;;14.70;;
44854;SDS011;30591;48.228;16.398;2022-12-07T05:44:30;26.13;;;16.30;;
44854;SDS011;30591;48.228;16.398;2022-12-07T05:46:58;24.07;;;15.83;;
44854;SDS011;30591;48.228;16.398;2022-12-07T05:49:25;23.17;;;14.40;;
44854;SDS011;30591;48.228;16.398;2022-12-07T05:51:54;23.53;;;14.53;;
44854;SDS011;30591;48.228;16.398;2022-12-07T05:54:21;25.63;;;15.57;;
44854;SDS011;30591;48.228;16.398;2022-12-07T05:56:52;22.80;;;14.87;;
44854;SDS011;30591;48.228;16.398;2022-12-07T05:59:20;22.80;;;14.10;;
44854;SDS011;30591;48.228;16.398;2022-12-07T06:01:55;21.77;;;14.07;;
44854;SDS011;30591;48.228;16.398;2022-12-07T06:04:33;23.47;;;14.73;;
44854;SDS011;30591;48.228;16.398;2022-12-07T06:07:03;23.43;;;14.37;;
44854;SDS011;30591;48.228;16.398;2022-12-07T06:09:32;21.93;;;14.50;;
44854;SDS011;30591;48.228;16.398;2022-12-07T06:12:01;23.30;;;14.40;;
44854;SDS011;30591;48.228;16.398;2022-12-07T06:14:49;22.90;;;13.77;;
44854;SDS011;30591;48.228;16.398;2022-12-07T06:17:17;23.77;;;15.13;;
44854;SDS011;30591;48.228;16.398;2022-12-07T06:19:48;23.60;;;14.40;;
44854;SDS011;30591;48.228;16.398;2022-12-07T06:22:16;24.90;;;14.73;;
44854;SDS011;30591;48.228;16.398;2022-12-07T06:24:44;21.93;;;13.50;;
44854;SDS011;30591;48.228;16.398;2022-12-07T06:27:19;22.53;;;13.67;;
44854;SDS011;30591;48.228;16.398;2022-12-07T06:29:47;22.17;;;14.33;;
44854;SDS011;30591;48.228;16.398;2022-12-07T06:32:15;22.03;;;14.20;;
44854;SDS011;30591;48.228;16.398;2022-12-07T06:34:43;21.67;;;14.33;;
44854;SDS011;30591;48.228;16.398;2022-12-07T06:37:10;26.07;;;17.73;;
44854;SDS011;30591;48.228;16.398;2022-12-07T06:39:37;22.30;;;14.87;;
44854;SDS011;30591;48.228;16.398;2022-12-07T06:42:05;22.50;;;14.20;;
44854;SDS011;30591;48.228;16.398;2022-12-07T06:44:33;23.03;;;13.73;;
44854;SDS011;30591;48.228;16.398;2022-12-07T06:47:01;20.47;;;13.30;;
44854;SDS011;30591;48.228;16.398;2022-12-07T06:49:56;19.73;;;12.23;;
44854;SDS011;30591;48.228;16.398;2022-12-07T06:52:23;20.00;;;12.17;;
44854;SDS011;30591;48.228;16.398;2022-12-07T06:54:51;20.03;;;13.47;;
44854;SDS011;30591;48.228;16.398;2022-12-07T06:57:19;19.47;;;12.73;;
44854;SDS011;30591;48.228;16.398;2022-12-07T06:59:48;17.07;;;11.50;;
44854;SDS011;30591;48.228;16.398;2022-12-07T07:02:15;19.43;;;12.03;;
44854;SDS011;30591;48.228;16.398;2022-12-07T07:04:44;18.03;;;12.37;;
44854;SDS011;30591;48.228;16.398;2022-12-07T07:07:12;17.80;;;12.37;;
44854;SDS011;30591;48.228;16.398;2022-12-07T07:09:57;18.03;;;12.23;;
44854;SDS011;30591;48.228;16.398;2022-12-07T07:12:26;20.37;;;12.33;;
44854;SDS011;30591;48.228;16.398;2022-12-07T07:14:54;23.27;;;12.37;;
44854;SDS011;30591;48.228;16.398;2022-12-07T07:17:22;20.70;;;11.83;;
44854;SDS011;30591;48.228;16.398;2022-12-07T07:19:50;23.90;;;12.37;;
44854;SDS011;30591;48.228;16.398;2022-12-07T07:22:17;22.17;;;12.13;;
44854;SDS011;30591;48.228;16.398;2022-12-07T07:24:45;19.93;;;11.53;;
44854;SDS011;30591;48.228;16.398;2022-12-07T07:27:13;28.13;;;12.27;;
44854;SDS011;30591;48.228;16.398;2022-12-07T07:29:41;22.57;;;12.07;;
44854;SDS011;30591;48.228;16.398;2022-12-07T07:32:09;22.53;;;11.90;;
44854;SDS011;30591;48.228;16.398;2022-12-07T07:34:43;21.73;;;11.77;;
44854;SDS011;30591;48.228;16.398;2022-12-07T07:37:11;18.53;;;11.43;;
44854;SDS011;30591;48.228;16.398;2022-12-07T07:39:47;20.23;;;12.37;;
44854;SDS011;30591;48.228;16.398;2022-12-07T07:42:15;21.87;;;12.67;;
44854;SDS011;30591;48.228;16.398;2022-12-07T07:44:44;23.73;;;12.57;;
44854;SDS011;30591;48.228;16.398;2022-12-07T07:47:11;23.20;;;12.43;;
44854;SDS011;30591;48.228;16.398;2022-12-07T07:49:38;20.30;;;12.37;;
44854;SDS011;30591;48.228;16.398;2022-12-07T07:52:18;17.33;;;11.53;;
44854;SDS011;30591;48.228;16.398;2022-12-07T07:54:45;21.10;;;13.07;;
44854;SDS011;30591;48.228;16.398;2022-12-07T07:57:15;27.70;;;15.90;;
44854;SDS011;30591;48.228;16.398;2022-12-07T07:59:43;25.03;;;14.50;;
44854;SDS011;30591;48.228;16.398;2022-12-07T08:02:15;23.13;;;14.20;;
44854;SDS011;30591;48.228;16.398;2022-12-07T08:04:44;20.33;;;13.57;;
44854;SDS011;30591;48.228;16.398;2022-12-07T08:07:14;18.43;;;12.67;;
44854;SDS011;30591;48.228;16.398;2022-12-07T08:09:57;18.83;;;12.27;;
44854;SDS011;30591;48.228;16.398;2022-12-07T08:12:26;17.60;;;12.27;;
44854;SDS011;30591;48.228;16.398;2022-12-07T08:14:53;20.73;;;12.30;;
44854;SDS011;30591;48.228;16.398;2022-12-07T08:17:22;18.03;;;11.53;;
44854;SDS011;30591;48.228;16.398;2022-12-07T08:19:49;18.70;;;11.87;;
44854;SDS011;30591;48.228;16.398;2022-12-07T08:22:19;19.30;;;12.03;;
44854;SDS011;30591;48.228;16.398;2022-12-07T08:24:47;17.97;;;11.43;;
44854;SDS011;30591;48.228;16.398;2022-12-07T08:27:14;16.57;;;11.17;;
44854;SDS011;30591;48.228;16.398;2022-12-07T08:29:41;15.97;;;10.73;;
44854;SDS011;30591;48.228;16.398;2022-12-07T08:32:09;16.60;;;10.67;;
44854;SDS011;30591;48.228;16.398;2022-12-07T08:34:42;15.37;;;10.33;;
44854;SDS011;30591;48.228;16.398;2022-12-07T08:37:10;16.33;;;10.53;;
44854;SDS011;30591;48.228;16.398;2022-12-07T08:39:37;15.67;;;10.17;;
44854;SDS011;30591;48.228;16.398;2022-12-07T08:42:05;18.83;;;11.50;;
44854;SDS011;30591;48.228;16.398;2022-12-07T08:44:36;14.43;;;10.00;;
44854;SDS011;30591;48.228;16.398;2022-12-07T08:47:05;15.23;;;10.50;;
44854;SDS011;30591;48.228;16.398;2022-12-07T08:49:38;14.43;;;10.10;;
44854;SDS011;30591;48.228;16.398;2022-12-07T08:52:08;21.50;;;14.93;;
44854;SDS011;30591;48.228;16.398;2022-12-07T08:54:36;16.53;;;11.33;;
44854;SDS011;30591;48.228;16.398;2022-12-07T08:57:06;15.43;;;10.43;;
44854;SDS011;30591;48.228;16.398;2022-12-07T08:59:43;11.63;;;8.47;;
44854;SDS011;30591;48.228;16.398;2022-12-07T09:02:11;11.23;;;8.17;;
44854;SDS011;30591;48.228;16.398;2022-12-07T09:04:39;11.10;;;7.83;;
44854;SDS011;30591;48.228;16.398;2022-12-07T09:07:07;11.07;;;7.80;;
44854;SDS011;30591;48.228;16.398;2022-12-07T09:09:36;10.17;;;7.60;;
44854;SDS011;30591;48.228;16.398;2022-12-07T09:12:04;12.53;;;8.33;;
44854;SDS011;30591;48.228;16.398;2022-12-07T09:14:33;14.50;;;9.10;;
44854;SDS011;30591;48.228;16.398;2022-12-07T09:17:07;11.80;;;8.67;;
44854;SDS011;30591;48.228;16.398;2022-12-07T09:19:37;11.07;;;7.00;;
44854;SDS011;30591;48.228;16.398;2022-12-07T09:22:08;8.40;;;6.73;;
44854;SDS011;30591;48.228;16.398;2022-12-07T09:24:35;9.30;;;6.53;;
44854;SDS011;30591;48.228;16.398;2022-12-07T09:27:06;11.47;;;7.27;;
44854;SDS011;30591;48.228;16.398;2022-12-07T09:29:33;10.07;;;7.03;;
44854;SDS011;30591;48.228;16.398;2022-12-07T09:32:02;14.17;;;8.40;;
44854;SDS011;30591;48.228;16.398;2022-12-07T09:34:38;12.30;;;7.80;;
44854;SDS011;30591;48.228;16.398;2022-12-07T09:37:06;11.80;;;7.10;;
44854;SDS011;30591;48.228;16.398;2022-12-07T09:39:33;9.37;;;6.50;;
44854;SDS011;30591;48.228;16.398;2022-12-07T09:42:02;7.93;;;6.37;;
44854;SDS011;30591;48.228;16.398;2022-12-07T09:44:31;8.57;;;6.97;;
44854;SDS011;30591;48.228;16.398;2022-12-07T09:47:02;9.83;;;7.20;;
44854;SDS011;30591;48.228;16.398;2022-12-07T09:49:31;11.90;;;7.00;;
44854;SDS011;30591;48.228;16.398;2022-12-07T09:52:03;11.20;;;6.50;;
44854;SDS011;30591;48.228;16.398;2022-12-07T09:54:52;9.50;;;6.90;;
44854;SDS011;30591;48.228;16.398;2022-12-07T09:57:22;16.17;;;7.43;;
44854;SDS011;30591;48.228;16.398;2022-12-07T10:00:00;9.10;;;6.63;;
44854;SDS011;30591;48.228;16.398;2022-12-07T10:02:40;7.07;;;5.67;;
44854;SDS011;30591;48.228;16.398;2022-12-07T10:05:14;7.70;;;5.97;;
44854;SDS011;30591;48.228;16.398;2022-12-07T10:07:51;11.73;;;5.47;;
44854;SDS011;30591;48.228;16.398;2022-12-07T10:10:29;9.67;;;5.70;;
44854;SDS011;30591;48.228;16.398;2022-12-07T10:13:08;10.30;;;5.20;;
44854;SDS011;30591;48.228;16.398;2022-12-07T10:15:47;7.10;;;4.90;;
44854;SDS011;30591;48.228;16.398;2022-12-07T10:18:30;6.73;;;4.60;;
44854;SDS011;30591;48.228;16.398;2022-12-07T10:21:06;10.47;;;4.37;;
44854;SDS011;30591;48.228;16.398;2022-12-07T10:23:40;14.93;;;5.23;;
44854;SDS011;30591;48.228;16.398;2022-12-07T10:32:50;3.30;;;2.80;;
44854;SDS011;30591;48.228;16.398;2022-12-07T10:35:41;3.50;;;2.50;;
44854;SDS011;30591;48.228;16.398;2022-12-07T10:37:53;5.90;;;2.90;;
44854;SDS011;30591;48.228;16.398;2022-12-07T10:40:35;4.53;;;3.07;;
44854;SDS011;30591;48.228;16.398;2022-12-07T10:48:59;4.87;;;2.70;;
44854;SDS011;30591;48.228;16.398;2022-12-07T10:51:46;3.03;;;2.70;;
44854;SDS011;30591;48.228;16.398;2022-12-07T10:57:49;5.17;;;4.30;;
44854;SDS011;30591;48.228;16.398;2022-12-07T11:18:09;10.83;;;5.03;;
44854;SDS011;30591;48.228;16.398;2022-12-07T11:23:56;10.90;;;3.47;;
44854;SDS011;30591;48.228;16.398;2022-12-07T11:37:39;10.50;;;3.27;;
44854;SDS011;30591;48.228;16.398;2022-12-07T11:40:15;7.93;;;3.00;;
44854;SDS011;30591;48.228;16.398;2022-12-07T11:42:52;4.73;;;2.87;;
44854;SDS011;30591;48.228;16.398;2022-12-07T11:45:27;3.47;;;2.70;;
44854;SDS011;30591;48.228;16.398;2022-12-07T11:48:02;3.80;;;3.03;;
44854;SDS011;30591;48.228;16.398;2022-12-07T11:50:41;3.53;;;2.70;;
44854;SDS011;30591;48.228;16.398;2022-12-07T11:53:16;4.00;;;2.78;;
44854;SDS011;30591;48.228;16.398;2022-12-07T11:55:59;4.90;;;2.90;;
44854;SDS011;30591;48.228;16.398;2022-12-07T12:06:46;11.30;;;8.95;;
44854;SDS011;30591;48.228;16.398;2022-12-07T12:09:16;13.20;;;3.72;;
44854;SDS011;30591;48.228;16.398;2022-12-07T12:20:26;18.00;;;4.77;;
44854;SDS011;30591;48.228;16.398;2022-12-07T12:23:11;16.03;;;4.57;;
44854;SDS011;30591;48.228;16.398;2022-12-07T12:25:41;13.27;;;3.83;;
44854;SDS011;30591;48.228;16.398;2022-12-07T12:31:15;6.20;;;3.40;;
44854;SDS011;30591;48.228;16.398;2022-12-07T12:33:58;5.33;;;3.80;;
44854;SDS011;30591;48.228;16.398;2022-12-07T12:39:18;3.60;;;3.30;;
44854;SDS011;30591;48.228;16.398;2022-12-07T12:51:55;5.83;;;2.40;;
44854;SDS011;30591;48.228;16.398;2022-12-07T12:54:27;2.80;;;2.37;;
44854;SDS011;30591;48.228;16.398;2022-12-07T12:57:23;3.53;;;2.33;;
44854;SDS011;30591;48.228;16.398;2022-12-07T12:59:57;2.27;;;2.07;;
44854;SDS011;30591;48.228;16.398;2022-12-07T13:02:33;2.20;;;2.00;;
44854;SDS011;30591;48.228;16.398;2022-12-07T13:12:57;3.70;;;2.07;;
44854;SDS011;30591;48.228;16.398;2022-12-07T13:15:53;2.07;;;1.80;;
44854;SDS011;30591;48.228;16.398;2022-12-07T13:21:02;3.47;;;2.20;;
44854;SDS011;30591;48.228;16.398;2022-12-07T13:23:54;2.57;;;2.10;;
44854;SDS011;30591;48.228;16.398;2022-12-07T13:29:17;15.37;;;9.60;;
44854;SDS011;30591;48.228;16.398;2022-12-07T13:31:50;2.60;;;2.30;;
44854;SDS011;30591;48.228;16.398;2022-12-07T13:34:35;4.40;;;2.70;;
44854;SDS011;30591;48.228;16.398;2022-12-07T13:37:14;5.77;;;4.67;;
44854;SDS011;30591;48.228;16.398;2022-12-07T13:39:46;7.20;;;5.20;;
44854;SDS011;30591;48.228;16.398;2022-12-07T13:42:28;8.30;;;5.03;;
44854;SDS011;30591;48.228;16.398;2022-12-07T13:44:57;6.87;;;5.50;;
44854;SDS011;30591;48.228;16.398;2022-12-07T13:50:22;7.17;;;5.47;;
44854;SDS011;30591;48.228;16.398;2022-12-07T13:52:57;10.60;;;6.10;;
44854;SDS011;30591;48.228;16.398;2022-12-07T13:55:25;7.07;;;5.90;;
44854;SDS011;30591;48.228;16.398;2022-12-07T13:57:54;7.60;;;5.40;;
44854;SDS011;30591;48.228;16.398;2022-12-07T14:00:27;7.97;;;5.57;;
44854;SDS011;30591;48.228;16.398;2022-12-07T14:02:58;9.70;;;5.77;;
44854;SDS011;30591;48.228;16.398;2022-12-07T14:05:34;8.70;;;5.73;;
44854;SDS011;30591;48.228;16.398;2022-12-07T14:08:03;9.27;;;6.00;;
44854;SDS011;30591;48.228;16.398;2022-12-07T14:10:34;8.57;;;5.80;;
44854;SDS011;30591;48.228;16.398;2022-12-07T14:16:32;15.70;;;7.70;;
44854;SDS011;30591;48.228;16.398;2022-12-07T14:19:04;11.43;;;7.03;;
44854;SDS011;30591;48.228;16.398;2022-12-07T14:22:08;9.60;;;6.00;;
44854;SDS011;30591;48.228;16.398;2022-12-07T14:24:45;9.27;;;5.97;;
44854;SDS011;30591;48.228;16.398;2022-12-07T14:27:17;8.47;;;6.13;;
44854;SDS011;30591;48.228;16.398;2022-12-07T14:29:47;9.47;;;6.80;;
44854;SDS011;30591;48.228;16.398;2022-12-07T14:32:26;10.93;;;6.93;;
44854;SDS011;30591;48.228;16.398;2022-12-07T14:34:56;10.67;;;7.30;;
44854;SDS011;30591;48.228;16.398;2022-12-07T14:37:29;9.60;;;7.37;;
44854;SDS011;30591;48.228;16.398;2022-12-07T14:39:57;11.50;;;8.53;;
44854;SDS011;30591;48.228;16.398;2022-12-07T14:42:27;11.77;;;8.20;;
44854;SDS011;30591;48.228;16.398;2022-12-07T14:44:58;11.13;;;7.47;;
44854;SDS011;30591;48.228;16.398;2022-12-07T14:47:27;10.97;;;7.70;;
44854;SDS011;30591;48.228;16.398;2022-12-07T14:50:15;11.50;;;6.73;;
44854;SDS011;30591;48.228;16.398;2022-12-07T14:52:54;9.40;;;7.17;;
44854;SDS011;30591;48.228;16.398;2022-12-07T14:55:43;11.73;;;6.80;;
44854;SDS011;30591;48.228;16.398;2022-12-07T14:58:15;11.97;;;6.23;;
44854;SDS011;30591;48.228;16.398;2022-12-07T15:00:44;10.23;;;7.37;;
44854;SDS011;30591;48.228;16.398;2022-12-07T15:03:13;11.27;;;7.00;;
44854;SDS011;30591;48.228;16.398;2022-12-07T15:05:41;9.23;;;6.80;;
44854;SDS011;30591;48.228;16.398;2022-12-07T15:08:09;9.13;;;6.63;;
44854;SDS011;30591;48.228;16.398;2022-12-07T15:10:38;13.00;;;7.17;;
44854;SDS011;30591;48.228;16.398;2022-12-07T15:13:07;12.20;;;7.53;;
44854;SDS011;30591;48.228;16.398;2022-12-07T15:15:58;12.87;;;7.47;;
44854;SDS011;30591;48.228;16.398;2022-12-07T15:18:26;10.37;;;7.13;;
44854;SDS011;30591;48.228;16.398;2022-12-07T15:20:54;11.23;;;6.80;;
44854;SDS011;30591;48.228;16.398;2022-12-07T15:23:21;10.60;;;6.63;;
44854;SDS011;30591;48.228;16.398;2022-12-07T15:25:48;10.73;;;7.17;;
44854;SDS011;30591;48.228;16.398;2022-12-07T15:28:16;12.33;;;7.43;;
44854;SDS011;30591;48.228;16.398;2022-12-07T15:30:44;12.77;;;7.53;;
44854;SDS011;30591;48.228;16.398;2022-12-07T15:33:13;10.03;;;6.70;;
44854;SDS011;30591;48.228;16.398;2022-12-07T15:35:42;11.90;;;7.70;;
44854;SDS011;30591;48.228;16.398;2022-12-07T15:38:11;13.27;;;8.57;;
44854;SDS011;30591;48.228;16.398;2022-12-07T15:40:39;14.17;;;8.10;;
44854;SDS011;30591;48.228;16.398;2022-12-07T15:43:10;10.70;;;7.33;;
44854;SDS011;30591;48.228;16.398;2022-12-07T15:45:57;10.37;;;8.00;;
44854;SDS011;30591;48.228;16.398;2022-12-07T15:48:26;11.83;;;7.80;;
44854;SDS011;30591;48.228;16.398;2022-12-07T15:51:07;10.93;;;7.10;;
44854;SDS011;30591;48.228;16.398;2022-12-07T15:53:35;10.67;;;7.10;;
44854;SDS011;30591;48.228;16.398;2022-12-07T15:56:06;11.70;;;7.67;;
44854;SDS011;30591;48.228;16.398;2022-12-07T15:58:39;10.57;;;7.20;;
44854;SDS011;30591;48.228;16.398;2022-12-07T16:01:14;12.13;;;7.17;;
44854;SDS011;30591;48.228;16.398;2022-12-07T16:03:44;11.60;;;6.87;;
44854;SDS011;30591;48.228;16.398;2022-12-07T16:06:15;10.47;;;7.57;;
44854;SDS011;30591;48.228;16.398;2022-12-07T16:08:43;10.23;;;7.33;;
44854;SDS011;30591;48.228;16.398;2022-12-07T16:11:12;13.63;;;7.73;;
44854;SDS011;30591;48.228;16.398;2022-12-07T16:13:40;12.07;;;7.53;;
44854;SDS011;30591;48.228;16.398;2022-12-07T16:16:09;11.03;;;7.23;;
44854;SDS011;30591;48.228;16.398;2022-12-07T16:18:39;11.47;;;7.77;;
44854;SDS011;30591;48.228;16.398;2022-12-07T16:21:09;11.80;;;8.20;;
44854;SDS011;30591;48.228;16.398;2022-12-07T16:23:36;15.27;;;8.13;;
44854;SDS011;30591;48.228;16.398;2022-12-07T16:26:14;12.90;;;8.40;;
44854;SDS011;30591;48.228;16.398;2022-12-07T16:28:43;15.37;;;9.20;;
44854;SDS011;30591;48.228;16.398;2022-12-07T16:31:13;14.40;;;9.70;;
44854;SDS011;30591;48.228;16.398;2022-12-07T16:33:43;14.37;;;8.30;;
44854;SDS011;30591;48.228;16.398;2022-12-07T16:36:12;12.43;;;8.47;;
44854;SDS011;30591;48.228;16.398;2022-12-07T16:39:03;11.87;;;8.27;;
44854;SDS011;30591;48.228;16.398;2022-12-07T16:41:31;13.37;;;7.83;;
44854;SDS011;30591;48.228;16.398;2022-12-07T16:44:03;13.53;;;8.50;;
44854;SDS011;30591;48.228;16.398;2022-12-07T16:46:32;13.27;;;8.50;;
44854;SDS011;30591;48.228;16.398;2022-12-07T16:49:01;14.13;;;8.80;;
44854;SDS011;30591;48.228;16.398;2022-12-07T16:51:29;12.47;;;8.70;;
44854;SDS011;30591;48.228;16.398;2022-12-07T16:53:57;12.37;;;7.97;;
44854;SDS011;30591;48.228;16.398;2022-12-07T16:56:25;15.80;;;8.73;;
44854;SDS011;30591;48.228;16.398;2022-12-07T16:58:53;14.53;;;8.13;;
44854;SDS011;30591;48.228;16.398;2022-12-07T17:01:21;11.20;;;7.27;;
44854;SDS011;30591;48.228;16.398;2022-12-07T17:03:50;11.97;;;8.07;;
44854;SDS011;30591;48.228;16.398;2022-12-07T17:06:27;13.07;;;8.53;;
44854;SDS011;30591;48.228;16.398;2022-12-07T17:08:59;13.60;;;8.20;;
44854;SDS011;30591;48.228;16.398;2022-12-07T17:11:27;13.13;;;8.13;;